createdAt,value
2023-03-29T00:01:35.866Z,14.60
2023-03-29T00:04:05.184Z,14.34
2023-03-29T00:06:33.988Z,14.81
2023-03-29T00:09:06.372Z,14.93
2023-03-29T00:11:36.783Z,14.82
2023-03-29T00:14:04.808Z,14.42
2023-03-29T00:16:36.451Z,14.63
2023-03-29T00:19:05.073Z,14.55
2023-03-29T00:21:33.243Z,14.42
2023-03-29T00:24:02.241Z,14.75
2023-03-29T00:26:30.456Z,14.87
2023-03-29T00:28:58.698Z,14.47
2023-03-29T00:31:27.653Z,14.76
2023-03-29T00:33:55.912Z,14.67
2023-03-29T00:36:24.013Z,14.64
2023-03-29T00:38:53.099Z,14.40
2023-03-29T00:41:21.634Z,14.34
2023-03-29T00:43:56.143Z,14.49
2023-03-29T00:46:25.049Z,14.61
2023-03-29T00:48:55.242Z,14.43
2023-03-29T00:51:24.943Z,14.66
2023-03-29T00:53:59.255Z,14.29
2023-03-29T00:56:37.281Z,14.17
2023-03-29T00:59:17.857Z,14.29
2023-03-29T01:02:02.167Z,14.14
2023-03-29T01:04:36.456Z,14.21
2023-03-29T01:07:09.509Z,14.18
2023-03-29T01:09:38.181Z,14.24
2023-03-29T01:12:19.705Z,14.36
2023-03-29T01:14:54.372Z,14.38
2023-03-29T01:17:25.585Z,14.36
2023-03-29T01:20:20.251Z,14.32
2023-03-29T01:23:18.299Z,14.48
2023-03-29T01:26:05.144Z,14.46
2023-03-29T01:28:36.395Z,14.76
2023-03-29T01:31:08.633Z,14.72
2023-03-29T01:33:46.346Z,14.56
2023-03-29T01:36:17.440Z,14.64
2023-03-29T01:38:51.156Z,14.55
2023-03-29T01:41:19.669Z,14.55
2023-03-29T01:43:57.011Z,14.67
2023-03-29T01:46:27.726Z,14.58
2023-03-29T01:48:59.851Z,14.65
2023-03-29T01:51:49.734Z,14.72
2023-03-29T01:54:24.218Z,14.83
2023-03-29T01:56:53.100Z,14.72
2023-03-29T01:59:23.056Z,14.34
2023-03-29T02:01:53.058Z,14.47
2023-03-29T02:04:29.242Z,14.23
2023-03-29T02:06:59.458Z,14.53
2023-03-29T02:09:29.015Z,14.25
2023-03-29T02:11:59.054Z,14.65
2023-03-29T02:14:30.766Z,14.75
2023-03-29T02:17:32.165Z,14.77
2023-03-29T02:20:17.696Z,14.74
2023-03-29T02:22:54.618Z,14.02
2023-03-29T02:25:24.498Z,14.07
2023-03-29T02:27:57.225Z,14.38
2023-03-29T02:30:47.831Z,14.46
2023-03-29T02:33:31.396Z,14.34
2023-03-29T02:36:04.414Z,14.24
2023-03-29T02:38:36.438Z,14.51
2023-03-29T02:41:05.675Z,14.43
2023-03-29T02:43:33.623Z,14.56
2023-03-29T02:46:01.902Z,14.97
2023-03-29T02:48:30.667Z,14.95
2023-03-29T02:51:14.307Z,15.09
2023-03-29T02:53:54.976Z,15.24
2023-03-29T02:56:23.145Z,15.04
2023-03-29T02:58:53.723Z,14.91
2023-03-29T03:01:23.097Z,14.28
2023-03-29T03:03:53.913Z,14.11
2023-03-29T03:06:23.020Z,13.90
2023-03-29T03:08:51.575Z,14.04
2023-03-29T03:11:20.516Z,14.15
2023-03-29T03:13:48.656Z,14.39
2023-03-29T03:16:17.263Z,14.56
2023-03-29T03:18:49.424Z,14.84
2023-03-29T03:21:18.943Z,14.88
2023-03-29T03:23:47.403Z,14.85
2023-03-29T03:26:18.248Z,14.82
2023-03-29T03:28:47.735Z,14.81
2023-03-29T03:31:36.137Z,14.66
2023-03-29T03:34:19.521Z,14.87
2023-03-29T03:36:55.625Z,14.80
2023-03-29T03:39:24.579Z,14.96
2023-03-29T03:41:53.041Z,14.90
2023-03-29T03:44:22.998Z,14.83
2023-03-29T03:47:01.685Z,14.63
2023-03-29T03:49:34.812Z,14.35
2023-03-29T03:52:03.144Z,14.41
2023-03-29T03:54:32.190Z,14.54
2023-03-29T03:57:24.619Z,14.16
2023-03-29T03:59:53.943Z,14.40
2023-03-29T04:02:29.223Z,14.60
2023-03-29T04:04:57.968Z,14.53
2023-03-29T04:07:32.726Z,14.54
2023-03-29T04:10:13.736Z,14.42
2023-03-29T04:12:52.467Z,14.03
2023-03-29T04:15:24.138Z,14.18
2023-03-29T04:17:59.826Z,14.11
2023-03-29T04:20:43.518Z,14.32
2023-03-29T04:23:18.001Z,14.52
2023-03-29T04:25:46.693Z,14.44
2023-03-29T04:28:33.616Z,14.13
2023-03-29T04:31:17.184Z,14.68
2023-03-29T04:34:01.734Z,14.67
2023-03-29T04:36:30.156Z,14.54
2023-03-29T04:39:01.660Z,14.14
2023-03-29T04:41:30.336Z,13.89
2023-03-29T04:44:08.548Z,13.79
2023-03-29T04:46:38.898Z,13.91
2023-03-29T04:49:07.633Z,13.73
2023-03-29T04:51:42.332Z,14.06
2023-03-29T04:54:13.931Z,13.88
2023-03-29T04:57:14.485Z,13.92
2023-03-29T05:00:14.874Z,14.12
2023-03-29T05:03:11.561Z,14.08
2023-03-29T05:05:41.988Z,14.05
2023-03-29T05:08:13.227Z,14.15
2023-03-29T05:11:00.663Z,14.03
2023-03-29T05:13:29.665Z,14.13
2023-03-29T05:15:58.242Z,14.17
2023-03-29T05:18:27.721Z,13.99
2023-03-29T05:20:56.985Z,14.23
2023-03-29T05:23:26.408Z,14.33
2023-03-29T05:26:08.402Z,14.54
2023-03-29T05:28:36.783Z,14.72
2023-03-29T05:31:06.273Z,14.55
2023-03-29T05:33:36.619Z,14.65
2023-03-29T05:36:09.174Z,14.70
2023-03-29T05:38:41.137Z,14.57
2023-03-29T05:41:10.970Z,14.36
2023-03-29T05:44:02.606Z,14.61
2023-03-29T05:46:31.599Z,14.59
2023-03-29T05:49:04.272Z,14.73
2023-03-29T05:51:57.298Z,14.74
2023-03-29T05:54:27.210Z,14.72
2023-03-29T05:56:56.043Z,14.80
2023-03-29T05:59:24.560Z,14.84
2023-03-29T06:01:53.143Z,14.82
2023-03-29T06:04:22.330Z,15.07
2023-03-29T06:07:02.155Z,15.13
2023-03-29T06:09:32.148Z,15.13
2023-03-29T06:12:04.311Z,15.01
2023-03-29T06:14:42.847Z,14.85
2023-03-29T06:17:24.261Z,14.71
2023-03-29T06:19:53.513Z,14.99
2023-03-29T06:22:23.060Z,15.14
2023-03-29T06:24:54.616Z,14.90
2023-03-29T06:27:30.109Z,14.70
2023-03-29T06:29:59.949Z,14.75
2023-03-29T06:32:29.874Z,14.85
2023-03-29T06:35:05.079Z,14.95
2023-03-29T06:37:40.531Z,14.99
2023-03-29T06:40:19.260Z,15.17
2023-03-29T06:42:51.204Z,15.08
2023-03-29T06:45:46.316Z,14.93
2023-03-29T06:48:22.755Z,14.93
2023-03-29T06:50:54.952Z,14.96
2023-03-29T06:53:28.223Z,14.87
2023-03-29T06:56:01.144Z,14.89
2023-03-29T06:58:56.870Z,14.91
2023-03-29T07:01:48.315Z,14.70
2023-03-29T07:04:37.369Z,14.99
2023-03-29T07:07:37.534Z,14.95
2023-03-29T07:10:13.278Z,14.81
2023-03-29T07:13:12.196Z,14.59
2023-03-29T07:15:41.047Z,14.73
2023-03-29T07:18:23.812Z,14.60
2023-03-29T07:20:52.475Z,14.64
2023-03-29T07:23:20.432Z,14.53
2023-03-29T07:25:49.661Z,14.67
2023-03-29T07:28:18.647Z,14.74
2023-03-29T07:30:47.792Z,14.88
2023-03-29T07:33:27.592Z,14.93
2023-03-29T07:36:02.032Z,14.66
2023-03-29T07:38:45.423Z,14.34
2023-03-29T07:41:18.352Z,14.45
2023-03-29T07:43:52.139Z,14.49
2023-03-29T07:46:24.563Z,14.46
2023-03-29T07:48:53.671Z,14.60
2023-03-29T07:51:22.864Z,14.55
2023-03-29T07:53:55.968Z,14.78
2023-03-29T07:56:56.525Z,14.75
2023-03-29T07:59:39.967Z,14.73
2023-03-29T08:02:19.265Z,14.89
2023-03-29T08:04:49.767Z,14.85
2023-03-29T08:07:21.747Z,14.99
2023-03-29T08:10:09.849Z,15.16
2023-03-29T08:12:56.831Z,15.15
2023-03-29T08:15:47.464Z,15.36
2023-03-29T08:18:29.457Z,15.24
2023-03-29T08:20:59.765Z,14.99
2023-03-29T08:23:28.555Z,15.09
2023-03-29T08:26:11.710Z,14.99
2023-03-29T08:28:40.444Z,14.91
2023-03-29T08:31:13.396Z,14.68
2023-03-29T08:33:46.843Z,14.93
2023-03-29T08:36:33.328Z,15.02
2023-03-29T08:39:08.488Z,15.13
2023-03-29T08:41:57.440Z,14.99
2023-03-29T08:44:44.011Z,15.10
2023-03-29T08:47:31.429Z,15.18
2023-03-29T08:49:59.858Z,14.54
2023-03-29T08:52:55.576Z,14.96
2023-03-29T08:55:48.126Z,14.88
2023-03-29T08:58:51.953Z,15.13
2023-03-29T09:01:23.288Z,15.03
2023-03-29T09:04:09.113Z,15.17
2023-03-29T09:06:54.385Z,15.15
2023-03-29T09:09:29.894Z,15.13
2023-03-29T09:12:24.327Z,14.98
2023-03-29T09:15:23.795Z,15.13
2023-03-29T09:18:25.955Z,14.69
2023-03-29T09:20:57.221Z,14.78
2023-03-29T09:23:42.104Z,14.96
2023-03-29T09:26:58.449Z,14.85
2023-03-29T09:29:50.462Z,15.14
2023-03-29T09:32:22.617Z,15.39
2023-03-29T09:35:03.593Z,15.54
2023-03-29T09:37:37.317Z,15.36
2023-03-29T09:40:15.856Z,15.44
2023-03-29T09:42:54.386Z,15.72
2023-03-29T09:47:53.319Z,15.87
2023-03-29T09:50:47.910Z,15.86
2023-03-29T09:53:18.616Z,15.18
2023-03-29T09:55:55.403Z,15.34
2023-03-29T09:58:34.348Z,15.34
2023-03-29T10:01:05.665Z,15.33
2023-03-29T10:03:39.433Z,15.68
2023-03-29T10:06:16.439Z,15.54
2023-03-29T10:08:55.072Z,15.72
2023-03-29T10:11:37.084Z,15.80
2023-03-29T10:14:11.717Z,16.14
2023-03-29T10:17:50.364Z,12.58
2023-03-29T10:20:19.789Z,14.36
2023-03-29T10:22:56.727Z,14.56
2023-03-29T10:25:27.909Z,14.81
2023-03-29T10:27:58.472Z,14.89
2023-03-29T10:30:28.298Z,15.05
2023-03-29T10:32:58.323Z,15.16
2023-03-29T10:35:33.902Z,15.25
2023-03-29T10:38:04.111Z,14.90
2023-03-29T10:40:35.875Z,14.80
2023-03-29T10:43:19.442Z,15.25
2023-03-29T10:45:52.056Z,14.95
2023-03-29T10:48:25.237Z,15.14
2023-03-29T10:50:57.453Z,15.07
2023-03-29T10:53:30.264Z,15.04
2023-03-29T10:56:10.280Z,15.16
2023-03-29T10:58:42.421Z,15.14
2023-03-29T11:01:17.506Z,15.17
2023-03-29T11:04:04.821Z,15.06
2023-03-29T11:06:45.535Z,15.23
2023-03-29T11:09:36.380Z,15.14
2023-03-29T11:12:16.145Z,15.13
2023-03-29T11:15:19.081Z,15.31
2023-03-29T11:17:51.210Z,15.30
2023-03-29T11:20:50.880Z,15.27
2023-03-29T11:23:27.859Z,15.35
2023-03-29T11:26:16.697Z,15.31
2023-03-29T11:29:01.668Z,15.27
2023-03-29T11:31:56.814Z,15.18
2023-03-29T11:34:53.307Z,15.44
2023-03-29T11:37:29.334Z,15.63
2023-03-29T11:40:22.610Z,15.21
2023-03-29T11:42:54.291Z,15.54
2023-03-29T11:45:49.023Z,15.44
2023-03-29T11:48:22.391Z,15.34
2023-03-29T11:50:55.562Z,15.27
2023-03-29T11:53:28.459Z,15.48
2023-03-29T11:55:57.121Z,15.96
2023-03-29T11:58:38.342Z,15.92
2023-03-29T12:01:10.745Z,15.91
2023-03-29T12:03:48.483Z,16.01
2023-03-29T12:06:32.643Z,15.77
2023-03-29T12:09:01.520Z,15.69
2023-03-29T12:11:33.817Z,15.84
2023-03-29T12:14:17.161Z,15.99
2023-03-29T12:16:58.656Z,15.55
2023-03-29T12:19:41.016Z,15.32
2023-03-29T12:22:11.226Z,15.39
2023-03-29T12:24:44.586Z,15.77
2023-03-29T12:27:27.157Z,15.74
2023-03-29T12:30:22.151Z,16.02
2023-03-29T12:33:15.956Z,16.24
2023-03-29T12:36:32.048Z,16.56
2023-03-29T12:39:20.010Z,16.05
2023-03-29T12:42:17.318Z,15.84
2023-03-29T12:45:04.527Z,16.20
2023-03-29T12:47:44.424Z,16.22
2023-03-29T12:50:28.599Z,16.33
2023-03-29T12:53:13.327Z,16.18
2023-03-29T12:55:41.723Z,15.96
2023-03-29T12:58:21.688Z,15.92
2023-03-29T13:00:56.933Z,16.03
2023-03-29T13:03:40.494Z,15.93
2023-03-29T13:06:10.444Z,16.02
2023-03-29T13:08:41.183Z,16.00
2023-03-29T13:11:27.691Z,16.07
2023-03-29T13:13:55.854Z,15.98
2023-03-29T13:16:32.878Z,15.73
2023-03-29T13:19:11.655Z,16.16
2023-03-29T13:22:07.973Z,16.33
2023-03-29T13:25:02.382Z,15.89
2023-03-29T13:28:02.800Z,15.80
2023-03-29T13:30:36.347Z,15.70
2023-03-29T13:33:17.656Z,16.22
2023-03-29T13:36:02.843Z,16.10
2023-03-29T13:38:32.284Z,16.30
2023-03-29T13:41:07.397Z,16.25
2023-03-29T13:43:52.145Z,16.28
2023-03-29T13:46:22.357Z,16.13
2023-03-29T13:49:00.044Z,16.25
2023-03-29T13:51:37.218Z,16.43
2023-03-29T13:54:11.558Z,16.23
2023-03-29T13:56:55.165Z,16.25
2023-03-29T13:59:47.543Z,16.31
2023-03-29T14:02:31.612Z,16.53
2023-03-29T14:05:04.269Z,16.59
2023-03-29T14:07:33.181Z,16.48
2023-03-29T14:10:05.007Z,16.41
2023-03-29T14:12:41.156Z,16.44
2023-03-29T14:15:21.547Z,16.53
2023-03-29T14:17:54.129Z,16.72
2023-03-29T14:20:22.507Z,16.40
2023-03-29T14:22:53.837Z,16.58
2023-03-29T14:25:22.834Z,16.55
2023-03-29T14:27:51.338Z,16.03
2023-03-29T14:30:21.817Z,15.59
2023-03-29T14:32:52.468Z,15.85
2023-03-29T14:35:21.036Z,15.90
2023-03-29T14:37:49.345Z,16.03
2023-03-29T14:40:20.714Z,16.03
2023-03-29T14:42:50.933Z,16.29
2023-03-29T14:45:18.897Z,16.46
2023-03-29T14:47:48.029Z,16.54
2023-03-29T14:50:18.973Z,16.44
2023-03-29T14:52:49.318Z,16.08
2023-03-29T14:55:23.749Z,16.02
2023-03-29T14:57:54.304Z,16.14
2023-03-29T15:00:24.770Z,16.02
2023-03-29T15:03:01.054Z,16.19
2023-03-29T15:05:37.051Z,16.39
2023-03-29T15:08:07.459Z,16.25
2023-03-29T15:10:37.084Z,16.26
2023-03-29T15:13:06.797Z,16.22
2023-03-29T15:15:38.540Z,16.19
2023-03-29T15:18:07.015Z,16.24
2023-03-29T15:20:37.780Z,16.25
2023-03-29T15:23:09.547Z,16.40
2023-03-29T15:25:38.954Z,16.38
2023-03-29T15:28:22.737Z,16.29
2023-03-29T15:31:07.201Z,16.22
2023-03-29T15:33:38.250Z,16.29
2023-03-29T15:36:07.479Z,16.34
2023-03-29T15:38:44.113Z,15.95
2023-03-29T15:41:14.391Z,15.61
2023-03-29T15:43:43.353Z,16.12
2023-03-29T15:46:12.287Z,16.22
2023-03-29T15:48:40.716Z,16.15
2023-03-29T15:51:12.711Z,16.34
2023-03-29T15:53:42.316Z,16.30
2023-03-29T15:56:15.885Z,16.32
2023-03-29T15:58:46.978Z,16.02
2023-03-29T16:01:34.190Z,15.94
2023-03-29T16:04:03.876Z,16.01
2023-03-29T16:06:33.728Z,15.96
2023-03-29T16:09:02.251Z,15.68
2023-03-29T16:11:30.296Z,15.82
2023-03-29T16:14:02.154Z,15.92
2023-03-29T16:16:31.482Z,15.99
2023-03-29T16:19:05.470Z,15.91
2023-03-29T16:21:34.152Z,15.95
2023-03-29T16:24:02.489Z,15.69
2023-03-29T16:26:32.659Z,15.79
2023-03-29T16:29:00.779Z,15.83
2023-03-29T16:31:28.939Z,16.26
2023-03-29T16:33:58.717Z,16.05
2023-03-29T16:36:28.450Z,15.96
2023-03-29T16:38:58.789Z,15.95
2023-03-29T16:41:27.854Z,16.13
2023-03-29T16:43:56.120Z,16.09
2023-03-29T16:46:24.455Z,16.13
2023-03-29T16:48:53.984Z,16.20
2023-03-29T16:51:26.480Z,16.27
2023-03-29T16:53:54.572Z,16.43
2023-03-29T16:56:22.869Z,16.19
2023-03-29T16:58:52.651Z,16.25
2023-03-29T17:01:22.808Z,16.22
2023-03-29T17:03:52.143Z,16.10
2023-03-29T17:06:22.082Z,16.25
2023-03-29T17:08:50.896Z,16.27
2023-03-29T17:11:23.190Z,16.16
2023-03-29T17:13:53.414Z,15.85
2023-03-29T17:16:21.963Z,15.80
2023-03-29T17:18:51.002Z,16.06
2023-03-29T17:21:19.321Z,15.87
2023-03-29T17:23:49.334Z,15.82
2023-03-29T17:26:18.120Z,16.02
2023-03-29T17:28:46.297Z,16.01
2023-03-29T17:31:18.319Z,15.87
2023-03-29T17:33:47.748Z,15.95
2023-03-29T17:36:15.964Z,16.05
2023-03-29T17:38:48.931Z,16.09
2023-03-29T17:41:18.104Z,16.09
2023-03-29T17:43:47.840Z,15.96
2023-03-29T17:46:18.182Z,15.96
2023-03-29T17:48:46.228Z,15.91
2023-03-29T17:51:14.501Z,16.10
2023-03-29T17:53:42.590Z,16.16
2023-03-29T17:56:13.768Z,16.03
2023-03-29T17:58:42.628Z,16.12
2023-03-29T18:01:19.569Z,15.94
2023-03-29T18:03:48.399Z,15.94
2023-03-29T18:06:20.709Z,15.81
2023-03-29T18:08:48.921Z,15.48
2023-03-29T18:11:22.464Z,15.53
2023-03-29T18:13:52.048Z,15.68
2023-03-29T18:16:21.648Z,15.82
2023-03-29T18:18:52.201Z,15.77
2023-03-29T18:21:20.224Z,15.72
2023-03-29T18:23:49.053Z,15.85
2023-03-29T18:26:17.121Z,16.02
2023-03-29T18:28:48.837Z,16.05
2023-03-29T18:31:17.360Z,15.89
2023-03-29T18:33:47.061Z,15.89
2023-03-29T18:36:15.602Z,15.73
2023-03-29T18:38:44.105Z,15.43
2023-03-29T18:41:13.282Z,15.07
2023-03-29T18:43:43.110Z,15.08
2023-03-29T18:46:11.733Z,15.12
2023-03-29T18:48:42.028Z,15.23
2023-03-29T18:51:11.361Z,15.41
2023-03-29T18:53:41.983Z,15.79
2023-03-29T18:56:11.478Z,15.65
2023-03-29T18:58:40.096Z,15.59
2023-03-29T19:01:09.697Z,15.90
2023-03-29T19:03:44.902Z,15.92
2023-03-29T19:06:15.353Z,15.85
2023-03-29T19:08:47.561Z,15.92
2023-03-29T19:11:16.336Z,15.88
2023-03-29T19:13:46.532Z,15.72
2023-03-29T19:16:17.756Z,15.83
2023-03-29T19:18:46.652Z,15.81
2023-03-29T19:21:14.888Z,15.92
2023-03-29T19:23:48.579Z,15.94
2023-03-29T19:26:16.834Z,15.59
2023-03-29T19:28:44.764Z,15.86
2023-03-29T19:31:13.121Z,15.94
2023-03-29T19:33:42.144Z,15.54
2023-03-29T19:36:10.515Z,15.49
2023-03-29T19:38:38.701Z,15.81
2023-03-29T19:41:10.162Z,15.91
2023-03-29T19:43:38.450Z,15.71
2023-03-29T19:46:10.492Z,15.80
2023-03-29T19:48:39.450Z,15.83
2023-03-29T19:51:08.103Z,15.87
2023-03-29T19:53:38.729Z,16.02
2023-03-29T19:56:13.361Z,16.10
2023-03-29T19:58:41.744Z,16.21
2023-03-29T20:01:11.133Z,16.31
2023-03-29T20:03:43.728Z,16.34
2023-03-29T20:06:12.625Z,16.46
2023-03-29T20:08:41.903Z,16.40
2023-03-29T20:11:12.641Z,16.17
2023-03-29T20:13:46.309Z,15.97
2023-03-29T20:16:16.064Z,15.90
2023-03-29T20:18:46.689Z,15.83
2023-03-29T20:21:16.715Z,15.68
2023-03-29T20:23:45.898Z,15.90
2023-03-29T20:26:14.443Z,15.81
2023-03-29T20:28:42.853Z,16.05
2023-03-29T20:31:12.834Z,16.02
2023-03-29T20:33:44.696Z,15.93
2023-03-29T20:36:18.513Z,15.92
2023-03-29T20:38:46.626Z,15.94
2023-03-29T20:41:15.521Z,15.94
2023-03-29T20:43:45.233Z,15.66
2023-03-29T20:46:18.430Z,15.39
2023-03-29T20:48:54.390Z,15.21
2023-03-29T20:51:28.153Z,14.81
2023-03-29T20:54:04.939Z,15.21
2023-03-29T20:56:38.577Z,15.21
2023-03-29T20:59:12.220Z,15.10
2023-03-29T21:01:42.649Z,15.02
2023-03-29T21:04:11.675Z,15.22
2023-03-29T21:06:39.721Z,15.13
2023-03-29T21:09:09.364Z,15.06
2023-03-29T21:11:42.692Z,14.96
2023-03-29T21:14:11.628Z,14.81
2023-03-29T21:16:42.438Z,14.96
2023-03-29T21:19:13.020Z,15.08
2023-03-29T21:21:43.481Z,15.02
2023-03-29T21:24:13.918Z,14.64
2023-03-29T21:26:42.118Z,14.50
2023-03-29T21:29:10.681Z,14.54
2023-03-29T21:31:40.203Z,14.65
2023-03-29T21:34:09.021Z,14.56
2023-03-29T21:36:37.087Z,14.45
2023-03-29T21:39:05.503Z,14.69
2023-03-29T21:41:33.504Z,14.71
2023-03-29T21:44:03.952Z,14.49
2023-03-29T21:46:32.663Z,14.30
2023-03-29T21:49:01.010Z,14.44
2023-03-29T21:51:29.826Z,14.58
2023-03-29T21:53:57.838Z,14.60
2023-03-29T21:56:26.381Z,14.36
2023-03-29T21:58:54.697Z,14.27
2023-03-29T22:01:22.966Z,14.53
2023-03-29T22:03:51.507Z,14.48
2023-03-29T22:06:22.943Z,14.27
2023-03-29T22:08:53.112Z,14.08
2023-03-29T22:11:23.446Z,13.76
2023-03-29T22:13:58.526Z,13.72
2023-03-29T22:16:29.510Z,13.76
2023-03-29T22:18:59.255Z,14.16
2023-03-29T22:21:28.664Z,14.47
2023-03-29T22:23:59.412Z,14.31
2023-03-29T22:26:29.660Z,14.00
2023-03-29T22:29:02.015Z,14.18
2023-03-29T22:31:32.331Z,14.25
2023-03-29T22:34:47.874Z,10.73
2023-03-29T22:37:18.100Z,12.86
2023-03-29T22:39:46.488Z,13.30
2023-03-29T22:42:16.296Z,13.38
2023-03-29T22:44:44.368Z,13.25
2023-03-29T22:47:12.589Z,13.16
2023-03-29T22:49:41.025Z,13.40
2023-03-29T22:52:09.251Z,13.82
2023-03-29T22:54:37.689Z,13.90
2023-03-29T22:57:06.053Z,13.80
2023-03-29T22:59:34.388Z,13.61
2023-03-29T23:02:02.376Z,13.50
2023-03-29T23:04:31.800Z,13.42
2023-03-29T23:07:00.421Z,13.41
2023-03-29T23:09:29.040Z,13.48
2023-03-29T23:11:58.788Z,13.56
2023-03-29T23:14:28.062Z,13.45
2023-03-29T23:16:57.684Z,13.63
2023-03-29T23:19:27.062Z,13.63
2023-03-29T23:21:55.274Z,13.84
2023-03-29T23:24:23.608Z,13.99
2023-03-29T23:26:52.134Z,13.97
2023-03-29T23:29:22.960Z,13.88
2023-03-29T23:31:52.012Z,13.83
2023-03-29T23:34:20.550Z,13.49
2023-03-29T23:36:49.195Z,13.33
2023-03-29T23:39:17.528Z,13.22
2023-03-29T23:41:45.891Z,13.24
2023-03-29T23:44:16.959Z,13.22
2023-03-29T23:46:46.417Z,13.26
2023-03-29T23:49:17.262Z,13.19
2023-03-29T23:51:48.299Z,13.21
2023-03-29T23:54:17.419Z,13.24
2023-03-29T23:56:48.279Z,13.07
2023-03-29T23:59:19.652Z,13.02
